This demonstration page uses our WeatherBlox Daily Observations layout. Learn more.

38.89511, -77.03637

Hourly Observations for July 1, 2018

Temp ( °F °C ) Dew Point ( °F °C ) Humidity (%) Winds ( mph kmh ) Pressure ( in mb ) Visibility ( mi km ) Precip ( " mm )
12:52 am 00:52 Mostly Cloudy 78 25.6 71 21.7 79 79 S 7 11 30.06 1018 10 16.09344 0 0
1:52 am 01:52 Mostly Cloudy 78 25.6 72 22.2 82 82 S 7 11 30.03 1017 10 16.09344 0 0
2:52 am 02:52 Partly Cloudy 77 25 71 21.7 82 82 S 5 7 30.03 1017 10 16.09344 0 0
3:52 am 03:52 Mostly Clear 76 24.4 71 21.7 85 85 SSW 5 7 30.03 1017 10 16.09344 0 0
4:52 am 04:52 Partly Cloudy 77 25 70 21.1 79 79 S 5 7 30.06 1018 10 16.09344 0 0
5:52 am 05:52 Mostly Cloudy 75 23.9 70 21.1 84 84 S 6 9 30.06 1018 10 16.09344 0 0
6:52 am 06:52 Mostly Sunny 76 24.4 71 21.7 85 85 S 5 7 30.06 1018 10 16.09344 0 0
7:52 am 07:52 Mostly Sunny 78 25.6 72 22.2 82 82 SSW 3 6 30.09 1019 10 16.09344 0 0
8:52 am 08:52 Mostly Sunny 80 26.7 71 21.7 74 74 SE 3 6 30.09 1019 10 16.09344 0 0
9:52 am 09:52 Mostly Sunny 84 28.9 71 21.7 65 65 SSE 5 7 30.06 1018 10 16.09344 0 0
10:52 am 10:52 Mostly Sunny 86 30 72 22.2 63 63 SSE 6 9 30.06 1018 10 16.09344 0 0
11:52 am 11:52 Partly Cloudy 90 32.2 72 22.2 56 56 S 6 9 30.06 1018 10 16.09344 0 0
12:52 pm 12:52 Partly Cloudy 91 32.8 71 21.7 52 52 SSE 6 9 30.06 1018 10 16.09344 0 0
1:52 pm 13:52 Partly Cloudy 91 32.8 69 20.6 49 49 S 9 15 30.03 1017 10 16.09344 0 0
2:52 pm 14:52 Partly Cloudy 93 33.9 71 21.7 49 49 S 9 15 30.03 1017 10 16.09344 0 0
3:52 pm 15:52 Mostly Sunny 92 33.3 71 21.7 51 51 S 10 17 30.03 1017 10 16.09344 0 0
4:52 pm 16:52 Partly Cloudy 92 33.3 72 22.2 52 52 S 13 20 30 1016 10 16.09344 0 0
5:52 pm 17:52 Partly Cloudy 90 32.2 71 21.7 54 54 S 12 19 30 1016 10 16.09344 0 0
6:52 pm 18:52 Mostly Sunny 89 31.7 73 22.8 59 59 S 10 17 30 1016 10 16.09344 0 0
7:52 pm 19:52 Partly Cloudy 86 30 74 23.3 67 67 S 9 15 30 1016 10 16.09344 0 0
8:52 pm 20:52 Partly Cloudy 85 29.4 73 22.8 68 68 S 7 11 30 1016 10 16.09344 0 0
9:52 pm 21:52 Mostly Clear 84 28.9 74 23.3 72 72 S 7 11 30.03 1017 10 16.09344 0 0
10:52 pm 22:52 Clear 82 27.8 75 23.9 79 79 S 6 9 30.03 1017 10 16.09344 0 0
11:52 pm 23:52 Clear 82 27.8 74 23.3 77 77 S 5 7 30.06 1018 10 16.09344 0 0

Powered by AerisWeather